sensor_id;sensor_type;location;lat;lon;timestamp;P1;durP1;ratioP1;P2;durP2;ratioP2
51907;SDS011;39320;53.214;6.556;2022-08-25T00:00:59;5.95;;;4.82;;
51907;SDS011;39320;53.214;6.556;2022-08-25T00:03:24;8.23;;;5.72;;
51907;SDS011;39320;53.214;6.556;2022-08-25T00:05:50;8.07;;;5.20;;
51907;SDS011;39320;53.214;6.556;2022-08-25T00:08:16;11.13;;;5.88;;
51907;SDS011;39320;53.214;6.556;2022-08-25T00:10:42;6.57;;;5.50;;
51907;SDS011;39320;53.214;6.556;2022-08-25T00:13:08;8.30;;;5.22;;
51907;SDS011;39320;53.214;6.556;2022-08-25T00:15:34;7.97;;;5.65;;
51907;SDS011;39320;53.214;6.556;2022-08-25T00:18:00;7.10;;;5.30;;
51907;SDS011;39320;53.214;6.556;2022-08-25T00:20:27;6.63;;;5.13;;
51907;SDS011;39320;53.214;6.556;2022-08-25T00:22:53;6.93;;;5.32;;
51907;SDS011;39320;53.214;6.556;2022-08-25T00:25:20;8.32;;;5.65;;
51907;SDS011;39320;53.214;6.556;2022-08-25T00:27:48;6.25;;;5.20;;
51907;SDS011;39320;53.214;6.556;2022-08-25T00:30:15;6.28;;;4.47;;
51907;SDS011;39320;53.214;6.556;2022-08-25T00:32:42;6.32;;;4.50;;
51907;SDS011;39320;53.214;6.556;2022-08-25T00:35:09;7.00;;;5.70;;
51907;SDS011;39320;53.214;6.556;2022-08-25T00:37:35;6.97;;;4.80;;
51907;SDS011;39320;53.214;6.556;2022-08-25T00:40:01;6.93;;;5.25;;
51907;SDS011;39320;53.214;6.556;2022-08-25T00:42:28;5.10;;;3.83;;
51907;SDS011;39320;53.214;6.556;2022-08-25T00:44:54;7.00;;;4.25;;
51907;SDS011;39320;53.214;6.556;2022-08-25T00:47:20;6.25;;;4.68;;
51907;SDS011;39320;53.214;6.556;2022-08-25T00:49:50;7.88;;;4.55;;
51907;SDS011;39320;53.214;6.556;2022-08-25T00:52:26;7.70;;;4.88;;
51907;SDS011;39320;53.214;6.556;2022-08-25T00:57:45;6.25;;;4.07;;
51907;SDS011;39320;53.214;6.556;2022-08-25T01:00:30;6.07;;;4.32;;
51907;SDS011;39320;53.214;6.556;2022-08-25T01:03:02;6.05;;;4.25;;
51907;SDS011;39320;53.214;6.556;2022-08-25T01:05:28;5.43;;;4.05;;
51907;SDS011;39320;53.214;6.556;2022-08-25T01:07:55;6.65;;;3.70;;
51907;SDS011;39320;53.214;6.556;2022-08-25T01:10:22;5.20;;;4.25;;
51907;SDS011;39320;53.214;6.556;2022-08-25T01:12:50;5.45;;;4.50;;
51907;SDS011;39320;53.214;6.556;2022-08-25T01:15:19;6.55;;;4.47;;
51907;SDS011;39320;53.214;6.556;2022-08-25T01:17:50;6.13;;;4.07;;
51907;SDS011;39320;53.214;6.556;2022-08-25T01:20:19;7.32;;;4.28;;
51907;SDS011;39320;53.214;6.556;2022-08-25T01:22:47;8.07;;;4.28;;
51907;SDS011;39320;53.214;6.556;2022-08-25T01:27:55;6.97;;;4.13;;
51907;SDS011;39320;53.214;6.556;2022-08-25T01:30:22;7.18;;;4.40;;
51907;SDS011;39320;53.214;6.556;2022-08-25T01:32:48;8.00;;;3.92;;
51907;SDS011;39320;53.214;6.556;2022-08-25T01:35:14;6.05;;;4.00;;
51907;SDS011;39320;53.214;6.556;2022-08-25T01:37:40;6.97;;;4.03;;
51907;SDS011;39320;53.214;6.556;2022-08-25T01:40:06;7.53;;;4.22;;
51907;SDS011;39320;53.214;6.556;2022-08-25T01:45:21;4.57;;;3.90;;
51907;SDS011;39320;53.214;6.556;2022-08-25T01:47:47;8.27;;;4.43;;
51907;SDS011;39320;53.214;6.556;2022-08-25T01:50:13;6.78;;;4.28;;
51907;SDS011;39320;53.214;6.556;2022-08-25T01:53:22;7.25;;;3.67;;
51907;SDS011;39320;53.214;6.556;2022-08-25T01:55:38;6.82;;;4.03;;
51907;SDS011;39320;53.214;6.556;2022-08-25T01:58:18;5.78;;;4.38;;
51907;SDS011;39320;53.214;6.556;2022-08-25T02:00:51;6.82;;;4.30;;
51907;SDS011;39320;53.214;6.556;2022-08-25T02:03:20;5.28;;;4.20;;
51907;SDS011;39320;53.214;6.556;2022-08-25T02:05:46;6.32;;;4.00;;
51907;SDS011;39320;53.214;6.556;2022-08-25T02:08:12;5.90;;;4.65;;
51907;SDS011;39320;53.214;6.556;2022-08-25T02:10:38;6.32;;;4.03;;
51907;SDS011;39320;53.214;6.556;2022-08-25T02:13:05;5.32;;;4.15;;
51907;SDS011;39320;53.214;6.556;2022-08-25T02:15:32;7.60;;;4.15;;
51907;SDS011;39320;53.214;6.556;2022-08-25T02:17:58;7.88;;;4.13;;
51907;SDS011;39320;53.214;6.556;2022-08-25T02:20:24;7.15;;;4.25;;
51907;SDS011;39320;53.214;6.556;2022-08-25T02:22:50;5.63;;;4.13;;
51907;SDS011;39320;53.214;6.556;2022-08-25T02:25:17;6.82;;;4.47;;
51907;SDS011;39320;53.214;6.556;2022-08-25T02:27:44;5.35;;;3.55;;
51907;SDS011;39320;53.214;6.556;2022-08-25T02:30:11;4.63;;;4.05;;
51907;SDS011;39320;53.214;6.556;2022-08-25T02:32:40;7.45;;;4.18;;
51907;SDS011;39320;53.214;6.556;2022-08-25T02:35:06;5.05;;;3.88;;
51907;SDS011;39320;53.214;6.556;2022-08-25T02:37:32;7.65;;;3.70;;
51907;SDS011;39320;53.214;6.556;2022-08-25T02:39:59;6.05;;;4.13;;
51907;SDS011;39320;53.214;6.556;2022-08-25T02:42:25;5.93;;;3.70;;
51907;SDS011;39320;53.214;6.556;2022-08-25T02:44:52;6.55;;;4.18;;
51907;SDS011;39320;53.214;6.556;2022-08-25T02:47:18;6.00;;;4.00;;
51907;SDS011;39320;53.214;6.556;2022-08-25T02:49:46;7.68;;;3.42;;
51907;SDS011;39320;53.214;6.556;2022-08-25T02:52:13;6.20;;;3.88;;
51907;SDS011;39320;53.214;6.556;2022-08-25T02:54:39;7.95;;;3.92;;
51907;SDS011;39320;53.214;6.556;2022-08-25T02:57:05;5.88;;;3.78;;
51907;SDS011;39320;53.214;6.556;2022-08-25T02:59:31;6.90;;;4.05;;
51907;SDS011;39320;53.214;6.556;2022-08-25T03:01:57;6.03;;;4.68;;
51907;SDS011;39320;53.214;6.556;2022-08-25T03:04:22;5.47;;;3.38;;
51907;SDS011;39320;53.214;6.556;2022-08-25T03:06:48;12.57;;;4.15;;
51907;SDS011;39320;53.214;6.556;2022-08-25T03:09:14;8.43;;;4.53;;
51907;SDS011;39320;53.214;6.556;2022-08-25T03:11:40;9.07;;;3.80;;
51907;SDS011;39320;53.214;6.556;2022-08-25T03:14:07;7.28;;;4.25;;
51907;SDS011;39320;53.214;6.556;2022-08-25T03:16:35;6.97;;;4.15;;
51907;SDS011;39320;53.214;6.556;2022-08-25T03:19:01;5.18;;;3.92;;
51907;SDS011;39320;53.214;6.556;2022-08-25T03:21:27;6.03;;;4.00;;
51907;SDS011;39320;53.214;6.556;2022-08-25T03:23:54;8.35;;;3.92;;
51907;SDS011;39320;53.214;6.556;2022-08-25T03:26:21;4.63;;;3.60;;
51907;SDS011;39320;53.214;6.556;2022-08-25T03:29:05;8.98;;;4.32;;
51907;SDS011;39320;53.214;6.556;2022-08-25T03:31:32;7.10;;;4.20;;
51907;SDS011;39320;53.214;6.556;2022-08-25T03:33:59;6.50;;;4.03;;
51907;SDS011;39320;53.214;6.556;2022-08-25T03:36:25;4.40;;;3.83;;
51907;SDS011;39320;53.214;6.556;2022-08-25T03:38:52;6.88;;;4.00;;
51907;SDS011;39320;53.214;6.556;2022-08-25T03:41:28;5.75;;;4.28;;
51907;SDS011;39320;53.214;6.556;2022-08-25T03:43:57;8.25;;;4.20;;
51907;SDS011;39320;53.214;6.556;2022-08-25T03:46:28;6.13;;;4.40;;
51907;SDS011;39320;53.214;6.556;2022-08-25T03:48:55;7.78;;;4.00;;
51907;SDS011;39320;53.214;6.556;2022-08-25T03:51:22;6.43;;;3.92;;
51907;SDS011;39320;53.214;6.556;2022-08-25T03:53:49;5.80;;;3.65;;
51907;SDS011;39320;53.214;6.556;2022-08-25T03:56:16;4.65;;;3.75;;
51907;SDS011;39320;53.214;6.556;2022-08-25T03:58:42;5.70;;;3.78;;
51907;SDS011;39320;53.214;6.556;2022-08-25T04:01:07;8.00;;;4.10;;
51907;SDS011;39320;53.214;6.556;2022-08-25T04:03:34;6.70;;;4.03;;
51907;SDS011;39320;53.214;6.556;2022-08-25T04:06:01;5.68;;;3.92;;
51907;SDS011;39320;53.214;6.556;2022-08-25T04:08:28;6.15;;;4.25;;
51907;SDS011;39320;53.214;6.556;2022-08-25T04:10:54;6.20;;;3.80;;
51907;SDS011;39320;53.214;6.556;2022-08-25T04:13:20;4.55;;;3.55;;
51907;SDS011;39320;53.214;6.556;2022-08-25T04:15:47;6.80;;;3.78;;
51907;SDS011;39320;53.214;6.556;2022-08-25T04:18:13;6.68;;;4.05;;
51907;SDS011;39320;53.214;6.556;2022-08-25T04:20:40;5.85;;;4.60;;
51907;SDS011;39320;53.214;6.556;2022-08-25T04:23:07;5.18;;;4.22;;
51907;SDS011;39320;53.214;6.556;2022-08-25T04:25:34;7.03;;;3.83;;
51907;SDS011;39320;53.214;6.556;2022-08-25T04:28:06;8.45;;;4.10;;
51907;SDS011;39320;53.214;6.556;2022-08-25T04:30:33;4.22;;;3.67;;
51907;SDS011;39320;53.214;6.556;2022-08-25T04:32:59;9.13;;;4.68;;
51907;SDS011;39320;53.214;6.556;2022-08-25T04:35:25;7.82;;;5.45;;
51907;SDS011;39320;53.214;6.556;2022-08-25T04:37:51;24.25;;;8.32;;
51907;SDS011;39320;53.214;6.556;2022-08-25T04:40:17;19.83;;;7.32;;
51907;SDS011;39320;53.214;6.556;2022-08-25T04:42:42;12.23;;;6.95;;
51907;SDS011;39320;53.214;6.556;2022-08-25T04:45:11;10.13;;;6.43;;
51907;SDS011;39320;53.214;6.556;2022-08-25T04:47:37;9.68;;;6.15;;
51907;SDS011;39320;53.214;6.556;2022-08-25T04:50:05;9.85;;;5.80;;
51907;SDS011;39320;53.214;6.556;2022-08-25T04:52:31;10.57;;;5.70;;
51907;SDS011;39320;53.214;6.556;2022-08-25T04:54:57;12.13;;;5.93;;
51907;SDS011;39320;53.214;6.556;2022-08-25T04:57:24;10.45;;;5.55;;
51907;SDS011;39320;53.214;6.556;2022-08-25T04:59:50;12.05;;;5.82;;
51907;SDS011;39320;53.214;6.556;2022-08-25T05:02:16;7.25;;;5.68;;
51907;SDS011;39320;53.214;6.556;2022-08-25T05:04:42;6.78;;;4.90;;
51907;SDS011;39320;53.214;6.556;2022-08-25T05:07:08;7.97;;;4.82;;
51907;SDS011;39320;53.214;6.556;2022-08-25T05:09:33;9.02;;;4.97;;
51907;SDS011;39320;53.214;6.556;2022-08-25T05:12:00;9.27;;;5.65;;
51907;SDS011;39320;53.214;6.556;2022-08-25T05:14:26;10.23;;;6.25;;
51907;SDS011;39320;53.214;6.556;2022-08-25T05:16:55;10.18;;;5.72;;
51907;SDS011;39320;53.214;6.556;2022-08-25T05:19:22;7.97;;;5.95;;
51907;SDS011;39320;53.214;6.556;2022-08-25T05:21:48;10.07;;;5.32;;
51907;SDS011;39320;53.214;6.556;2022-08-25T05:24:14;10.40;;;5.80;;
51907;SDS011;39320;53.214;6.556;2022-08-25T05:26:40;8.60;;;5.20;;
51907;SDS011;39320;53.214;6.556;2022-08-25T05:29:06;8.52;;;6.13;;
51907;SDS011;39320;53.214;6.556;2022-08-25T05:31:32;9.95;;;5.72;;
51907;SDS011;39320;53.214;6.556;2022-08-25T05:33:59;8.55;;;5.10;;
51907;SDS011;39320;53.214;6.556;2022-08-25T05:36:30;10.10;;;5.45;;
51907;SDS011;39320;53.214;6.556;2022-08-25T05:38:58;9.75;;;5.70;;
51907;SDS011;39320;53.214;6.556;2022-08-25T05:41:26;11.82;;;5.72;;
51907;SDS011;39320;53.214;6.556;2022-08-25T05:43:53;11.32;;;6.25;;
51907;SDS011;39320;53.214;6.556;2022-08-25T05:46:20;7.68;;;5.50;;
51907;SDS011;39320;53.214;6.556;2022-08-25T05:48:46;10.05;;;5.72;;
51907;SDS011;39320;53.214;6.556;2022-08-25T05:51:13;8.35;;;5.20;;
51907;SDS011;39320;53.214;6.556;2022-08-25T05:53:43;11.15;;;6.40;;
51907;SDS011;39320;53.214;6.556;2022-08-25T05:56:10;11.00;;;6.20;;
51907;SDS011;39320;53.214;6.556;2022-08-25T05:58:38;7.57;;;5.90;;
51907;SDS011;39320;53.214;6.556;2022-08-25T06:01:04;9.38;;;6.15;;
51907;SDS011;39320;53.214;6.556;2022-08-25T06:03:49;13.23;;;5.95;;
51907;SDS011;39320;53.214;6.556;2022-08-25T06:06:18;7.75;;;5.13;;
51907;SDS011;39320;53.214;6.556;2022-08-25T06:08:45;9.00;;;6.07;;
51907;SDS011;39320;53.214;6.556;2022-08-25T06:11:11;8.65;;;6.22;;
51907;SDS011;39320;53.214;6.556;2022-08-25T06:13:38;11.27;;;5.70;;
51907;SDS011;39320;53.214;6.556;2022-08-25T06:16:04;11.57;;;6.55;;
51907;SDS011;39320;53.214;6.556;2022-08-25T06:18:31;10.23;;;6.80;;
51907;SDS011;39320;53.214;6.556;2022-08-25T06:20:56;10.57;;;6.78;;
51907;SDS011;39320;53.214;6.556;2022-08-25T06:23:22;12.52;;;6.57;;
51907;SDS011;39320;53.214;6.556;2022-08-25T06:25:48;8.82;;;6.78;;
51907;SDS011;39320;53.214;6.556;2022-08-25T06:28:15;13.13;;;7.00;;
51907;SDS011;39320;53.214;6.556;2022-08-25T06:30:41;10.77;;;6.88;;
51907;SDS011;39320;53.214;6.556;2022-08-25T06:33:07;10.30;;;6.70;;
51907;SDS011;39320;53.214;6.556;2022-08-25T06:35:33;14.30;;;7.20;;
51907;SDS011;39320;53.214;6.556;2022-08-25T06:37:59;11.85;;;7.32;;
51907;SDS011;39320;53.214;6.556;2022-08-25T06:40:25;9.65;;;6.82;;
51907;SDS011;39320;53.214;6.556;2022-08-25T06:42:50;8.98;;;6.72;;
51907;SDS011;39320;53.214;6.556;2022-08-25T06:45:16;10.38;;;6.53;;
51907;SDS011;39320;53.214;6.556;2022-08-25T06:47:42;11.90;;;6.28;;
51907;SDS011;39320;53.214;6.556;2022-08-25T06:50:08;11.90;;;7.00;;
51907;SDS011;39320;53.214;6.556;2022-08-25T06:52:34;15.40;;;7.50;;
51907;SDS011;39320;53.214;6.556;2022-08-25T06:55:00;12.73;;;6.70;;
51907;SDS011;39320;53.214;6.556;2022-08-25T06:57:27;10.15;;;7.07;;
51907;SDS011;39320;53.214;6.556;2022-08-25T06:59:53;13.77;;;6.70;;
51907;SDS011;39320;53.214;6.556;2022-08-25T07:02:18;11.85;;;6.88;;
51907;SDS011;39320;53.214;6.556;2022-08-25T07:04:44;11.27;;;6.55;;
51907;SDS011;39320;53.214;6.556;2022-08-25T07:07:10;11.18;;;6.18;;
51907;SDS011;39320;53.214;6.556;2022-08-25T07:09:36;12.10;;;5.90;;
51907;SDS011;39320;53.214;6.556;2022-08-25T07:12:02;7.53;;;6.00;;
51907;SDS011;39320;53.214;6.556;2022-08-25T07:14:29;10.95;;;6.40;;
51907;SDS011;39320;53.214;6.556;2022-08-25T07:16:55;10.95;;;5.70;;
51907;SDS011;39320;53.214;6.556;2022-08-25T07:19:21;10.55;;;5.75;;
51907;SDS011;39320;53.214;6.556;2022-08-25T07:21:48;11.05;;;6.22;;
51907;SDS011;39320;53.214;6.556;2022-08-25T07:24:16;8.90;;;5.40;;
51907;SDS011;39320;53.214;6.556;2022-08-25T07:26:43;7.40;;;4.90;;
51907;SDS011;39320;53.214;6.556;2022-08-25T07:29:11;8.85;;;4.78;;
51907;SDS011;39320;53.214;6.556;2022-08-25T07:31:42;7.10;;;5.20;;
51907;SDS011;39320;53.214;6.556;2022-08-25T07:34:08;8.48;;;5.15;;
51907;SDS011;39320;53.214;6.556;2022-08-25T07:36:53;9.45;;;4.97;;
51907;SDS011;39320;53.214;6.556;2022-08-25T07:39:20;11.20;;;5.78;;
51907;SDS011;39320;53.214;6.556;2022-08-25T07:41:51;6.97;;;5.05;;
51907;SDS011;39320;53.214;6.556;2022-08-25T07:44:17;9.40;;;4.88;;
51907;SDS011;39320;53.214;6.556;2022-08-25T07:46:48;8.38;;;4.90;;
51907;SDS011;39320;53.214;6.556;2022-08-25T07:49:14;9.38;;;5.18;;
51907;SDS011;39320;53.214;6.556;2022-08-25T07:51:40;8.88;;;4.78;;
51907;SDS011;39320;53.214;6.556;2022-08-25T07:54:06;7.78;;;4.80;;
51907;SDS011;39320;53.214;6.556;2022-08-25T07:56:32;9.20;;;5.00;;
51907;SDS011;39320;53.214;6.556;2022-08-25T07:58:58;7.63;;;4.88;;
51907;SDS011;39320;53.214;6.556;2022-08-25T08:01:24;7.75;;;4.95;;
51907;SDS011;39320;53.214;6.556;2022-08-25T08:03:50;9.43;;;5.03;;
51907;SDS011;39320;53.214;6.556;2022-08-25T08:06:22;8.75;;;4.72;;
51907;SDS011;39320;53.214;6.556;2022-08-25T08:08:49;8.63;;;4.97;;
51907;SDS011;39320;53.214;6.556;2022-08-25T08:11:23;7.22;;;4.63;;
51907;SDS011;39320;53.214;6.556;2022-08-25T08:13:54;5.70;;;4.97;;
51907;SDS011;39320;53.214;6.556;2022-08-25T08:16:22;8.07;;;5.32;;
51907;SDS011;39320;53.214;6.556;2022-08-25T08:18:49;7.63;;;4.53;;
51907;SDS011;39320;53.214;6.556;2022-08-25T08:21:20;9.88;;;5.75;;
51907;SDS011;39320;53.214;6.556;2022-08-25T08:23:51;8.63;;;4.93;;
51907;SDS011;39320;53.214;6.556;2022-08-25T08:26:17;9.10;;;4.95;;
51907;SDS011;39320;53.214;6.556;2022-08-25T08:28:43;11.02;;;4.22;;
51907;SDS011;39320;53.214;6.556;2022-08-25T08:31:09;5.35;;;3.80;;
51907;SDS011;39320;53.214;6.556;2022-08-25T08:33:35;9.48;;;4.82;;
51907;SDS011;39320;53.214;6.556;2022-08-25T08:36:03;6.45;;;4.38;;
51907;SDS011;39320;53.214;6.556;2022-08-25T08:38:33;5.93;;;4.28;;
51907;SDS011;39320;53.214;6.556;2022-08-25T08:43:55;5.70;;;4.25;;
51907;SDS011;39320;53.214;6.556;2022-08-25T08:46:33;5.43;;;4.60;;
51907;SDS011;39320;53.214;6.556;2022-08-25T08:49:09;7.40;;;4.93;;
51907;SDS011;39320;53.214;6.556;2022-08-25T08:51:56;6.90;;;4.38;;
51907;SDS011;39320;53.214;6.556;2022-08-25T08:54:35;7.03;;;4.57;;
51907;SDS011;39320;53.214;6.556;2022-08-25T08:57:08;7.03;;;4.45;;
51907;SDS011;39320;53.214;6.556;2022-08-25T08:59:50;7.72;;;4.53;;
51907;SDS011;39320;53.214;6.556;2022-08-25T09:02:24;5.53;;;4.05;;
51907;SDS011;39320;53.214;6.556;2022-08-25T09:05:02;6.75;;;4.82;;
51907;SDS011;39320;53.214;6.556;2022-08-25T09:07:43;8.30;;;4.47;;
51907;SDS011;39320;53.214;6.556;2022-08-25T09:10:17;5.50;;;4.47;;
51907;SDS011;39320;53.214;6.556;2022-08-25T09:12:45;8.30;;;4.45;;
51907;SDS011;39320;53.214;6.556;2022-08-25T09:18:37;8.02;;;4.60;;
51907;SDS011;39320;53.214;6.556;2022-08-25T09:29:33;7.75;;;4.20;;
51907;SDS011;39320;53.214;6.556;2022-08-25T09:32:19;4.80;;;4.03;;
51907;SDS011;39320;53.214;6.556;2022-08-25T09:34:46;6.90;;;4.32;;
51907;SDS011;39320;53.214;6.556;2022-08-25T09:37:14;6.70;;;4.07;;
51907;SDS011;39320;53.214;6.556;2022-08-25T09:39:40;6.82;;;4.20;;
51907;SDS011;39320;53.214;6.556;2022-08-25T09:42:06;6.10;;;3.92;;
51907;SDS011;39320;53.214;6.556;2022-08-25T09:44:35;7.20;;;3.90;;
51907;SDS011;39320;53.214;6.556;2022-08-25T09:49:43;6.35;;;4.10;;
51907;SDS011;39320;53.214;6.556;2022-08-25T09:52:20;5.53;;;3.80;;
51907;SDS011;39320;53.214;6.556;2022-08-25T09:54:53;5.28;;;3.45;;
51907;SDS011;39320;53.214;6.556;2022-08-25T09:57:28;7.18;;;3.58;;
51907;SDS011;39320;53.214;6.556;2022-08-25T10:00:43;6.35;;;3.88;;
51907;SDS011;39320;53.214;6.556;2022-08-25T10:05:31;6.90;;;3.47;;
51907;SDS011;39320;53.214;6.556;2022-08-25T10:08:01;5.65;;;3.47;;
51907;SDS011;39320;53.214;6.556;2022-08-25T10:10:34;3.70;;;3.17;;
51907;SDS011;39320;53.214;6.556;2022-08-25T10:13:16;6.07;;;3.30;;
51907;SDS011;39320;53.214;6.556;2022-08-25T10:15:44;7.57;;;3.47;;
51907;SDS011;39320;53.214;6.556;2022-08-25T10:18:22;10.05;;;3.50;;
51907;SDS011;39320;53.214;6.556;2022-08-25T10:23:31;6.68;;;3.58;;
51907;SDS011;39320;53.214;6.556;2022-08-25T10:26:03;9.95;;;3.92;;
51907;SDS011;39320;53.214;6.556;2022-08-25T10:31:22;6.95;;;3.58;;
51907;SDS011;39320;53.214;6.556;2022-08-25T10:34:06;7.50;;;3.53;;
51907;SDS011;39320;53.214;6.556;2022-08-25T10:39:41;6.97;;;3.55;;
51907;SDS011;39320;53.214;6.556;2022-08-25T10:42:17;4.80;;;3.33;;
51907;SDS011;39320;53.214;6.556;2022-08-25T10:48:11;4.18;;;3.00;;
51907;SDS011;39320;53.214;6.556;2022-08-25T10:50:42;7.72;;;3.47;;
51907;SDS011;39320;53.214;6.556;2022-08-25T10:53:39;5.63;;;2.90;;
51907;SDS011;39320;53.214;6.556;2022-08-25T11:04:52;4.18;;;3.17;;
51907;SDS011;39320;53.214;6.556;2022-08-25T11:07:32;4.55;;;2.95;;
51907;SDS011;39320;53.214;6.556;2022-08-25T11:10:11;7.32;;;3.65;;
51907;SDS011;39320;53.214;6.556;2022-08-25T11:12:45;5.88;;;3.13;;
51907;SDS011;39320;53.214;6.556;2022-08-25T11:18:13;6.07;;;3.58;;
51907;SDS011;39320;53.214;6.556;2022-08-25T11:20:41;5.50;;;3.85;;
51907;SDS011;39320;53.214;6.556;2022-08-25T11:23:22;6.88;;;4.22;;
51907;SDS011;39320;53.214;6.556;2022-08-25T11:26:08;5.28;;;3.88;;
51907;SDS011;39320;53.214;6.556;2022-08-25T11:28:46;5.53;;;3.53;;
51907;SDS011;39320;53.214;6.556;2022-08-25T11:31:21;5.80;;;3.70;;
51907;SDS011;39320;53.214;6.556;2022-08-25T11:33:49;6.57;;;3.47;;
51907;SDS011;39320;53.214;6.556;2022-08-25T11:41:51;6.57;;;3.90;;
51907;SDS011;39320;53.214;6.556;2022-08-25T11:44:39;6.38;;;4.13;;
51907;SDS011;39320;53.214;6.556;2022-08-25T11:50:55;8.57;;;3.95;;
51907;SDS011;39320;53.214;6.556;2022-08-25T11:53:25;5.05;;;3.47;;
51907;SDS011;39320;53.214;6.556;2022-08-25T11:55:58;4.15;;;3.08;;
51907;SDS011;39320;53.214;6.556;2022-08-25T12:00:54;5.50;;;3.53;;
51907;SDS011;39320;53.214;6.556;2022-08-25T12:17:04;4.60;;;3.20;;
51907;SDS011;39320;53.214;6.556;2022-08-25T12:38:11;7.68;;;3.22;;
51907;SDS011;39320;53.214;6.556;2022-08-25T12:43:20;4.43;;;2.95;;
51907;SDS011;39320;53.214;6.556;2022-08-25T12:45:54;4.47;;;2.90;;
51907;SDS011;39320;53.214;6.556;2022-08-25T12:54:16;3.83;;;2.85;;
51907;SDS011;39320;53.214;6.556;2022-08-25T12:56:57;4.32;;;2.53;;
51907;SDS011;39320;53.214;6.556;2022-08-25T13:02:05;5.90;;;2.80;;
51907;SDS011;39320;53.214;6.556;2022-08-25T13:04:59;5.05;;;2.80;;
51907;SDS011;39320;53.214;6.556;2022-08-25T13:10:32;4.00;;;2.80;;
51907;SDS011;39320;53.214;6.556;2022-08-25T13:13:09;6.72;;;2.88;;
51907;SDS011;39320;53.214;6.556;2022-08-25T13:16:05;6.93;;;3.30;;
51907;SDS011;39320;53.214;6.556;2022-08-25T13:18:34;4.03;;;2.80;;
51907;SDS011;39320;53.214;6.556;2022-08-25T13:23:49;4.28;;;3.05;;
51907;SDS011;39320;53.214;6.556;2022-08-25T13:26:22;5.30;;;2.47;;
51907;SDS011;39320;53.214;6.556;2022-08-25T13:28:54;4.80;;;2.90;;
51907;SDS011;39320;53.214;6.556;2022-08-25T13:31:25;6.40;;;3.00;;
51907;SDS011;39320;53.214;6.556;2022-08-25T13:36:33;3.47;;;2.55;;
51907;SDS011;39320;53.214;6.556;2022-08-25T13:39:27;3.83;;;2.55;;
51907;SDS011;39320;53.214;6.556;2022-08-25T13:41:57;4.07;;;2.58;;
51907;SDS011;39320;53.214;6.556;2022-08-25T13:44:24;4.55;;;2.83;;
51907;SDS011;39320;53.214;6.556;2022-08-25T13:49:33;3.97;;;3.15;;
51907;SDS011;39320;53.214;6.556;2022-08-25T13:52:00;4.32;;;2.83;;
51907;SDS011;39320;53.214;6.556;2022-08-25T13:54:46;3.92;;;2.78;;
51907;SDS011;39320;53.214;6.556;2022-08-25T13:57:18;5.30;;;2.75;;
51907;SDS011;39320;53.214;6.556;2022-08-25T13:59:52;4.55;;;3.50;;
51907;SDS011;39320;53.214;6.556;2022-08-25T14:05:10;6.47;;;3.30;;
51907;SDS011;39320;53.214;6.556;2022-08-25T14:07:37;7.63;;;2.95;;
51907;SDS011;39320;53.214;6.556;2022-08-25T14:10:05;4.68;;;2.78;;
51907;SDS011;39320;53.214;6.556;2022-08-25T14:17:41;5.05;;;2.88;;
51907;SDS011;39320;53.214;6.556;2022-08-25T14:20:20;5.72;;;2.80;;
51907;SDS011;39320;53.214;6.556;2022-08-25T14:22:56;4.35;;;2.58;;
51907;SDS011;39320;53.214;6.556;2022-08-25T14:25:37;5.90;;;2.80;;
51907;SDS011;39320;53.214;6.556;2022-08-25T14:28:04;5.45;;;3.08;;
51907;SDS011;39320;53.214;6.556;2022-08-25T14:30:32;3.88;;;2.42;;
51907;SDS011;39320;53.214;6.556;2022-08-25T14:33:01;3.83;;;3.22;;
51907;SDS011;39320;53.214;6.556;2022-08-25T14:35:28;4.22;;;3.03;;
51907;SDS011;39320;53.214;6.556;2022-08-25T14:37:54;6.25;;;2.97;;
51907;SDS011;39320;53.214;6.556;2022-08-25T14:40:20;6.72;;;3.00;;
51907;SDS011;39320;53.214;6.556;2022-08-25T14:42:47;5.47;;;3.10;;
51907;SDS011;39320;53.214;6.556;2022-08-25T14:45:13;4.55;;;2.90;;
51907;SDS011;39320;53.214;6.556;2022-08-25T14:47:40;4.85;;;3.10;;
51907;SDS011;39320;53.214;6.556;2022-08-25T14:50:07;4.35;;;2.70;;
51907;SDS011;39320;53.214;6.556;2022-08-25T14:52:34;5.90;;;3.40;;
51907;SDS011;39320;53.214;6.556;2022-08-25T14:55:00;4.60;;;2.97;;
51907;SDS011;39320;53.214;6.556;2022-08-25T14:57:26;5.15;;;3.95;;
51907;SDS011;39320;53.214;6.556;2022-08-25T14:59:55;6.32;;;3.80;;
51907;SDS011;39320;53.214;6.556;2022-08-25T15:02:22;5.00;;;3.33;;
51907;SDS011;39320;53.214;6.556;2022-08-25T15:04:50;7.78;;;3.67;;
51907;SDS011;39320;53.214;6.556;2022-08-25T15:07:19;7.00;;;4.07;;
51907;SDS011;39320;53.214;6.556;2022-08-25T15:10:04;5.65;;;3.90;;
51907;SDS011;39320;53.214;6.556;2022-08-25T15:12:31;5.53;;;3.60;;
51907;SDS011;39320;53.214;6.556;2022-08-25T15:14:58;9.50;;;4.05;;
51907;SDS011;39320;53.214;6.556;2022-08-25T15:17:27;4.63;;;3.13;;
51907;SDS011;39320;53.214;6.556;2022-08-25T15:19:54;5.55;;;3.17;;
51907;SDS011;39320;53.214;6.556;2022-08-25T15:22:21;3.88;;;2.97;;
51907;SDS011;39320;53.214;6.556;2022-08-25T15:24:47;4.20;;;2.88;;
51907;SDS011;39320;53.214;6.556;2022-08-25T15:27:13;5.47;;;3.42;;
51907;SDS011;39320;53.214;6.556;2022-08-25T15:29:43;6.03;;;3.50;;
51907;SDS011;39320;53.214;6.556;2022-08-25T15:32:08;4.20;;;3.30;;
51907;SDS011;39320;53.214;6.556;2022-08-25T15:34:35;6.95;;;3.20;;
51907;SDS011;39320;53.214;6.556;2022-08-25T15:37:11;5.47;;;3.67;;
51907;SDS011;39320;53.214;6.556;2022-08-25T15:39:40;4.72;;;3.25;;
51907;SDS011;39320;53.214;6.556;2022-08-25T15:42:07;6.28;;;3.22;;
51907;SDS011;39320;53.214;6.556;2022-08-25T15:44:36;5.05;;;3.50;;
51907;SDS011;39320;53.214;6.556;2022-08-25T15:47:03;7.10;;;3.78;;
51907;SDS011;39320;53.214;6.556;2022-08-25T15:49:29;5.07;;;3.58;;
51907;SDS011;39320;53.214;6.556;2022-08-25T15:51:55;6.75;;;3.50;;
51907;SDS011;39320;53.214;6.556;2022-08-25T15:54:22;6.07;;;3.65;;
51907;SDS011;39320;53.214;6.556;2022-08-25T15:56:49;5.47;;;3.65;;
51907;SDS011;39320;53.214;6.556;2022-08-25T15:59:15;7.18;;;3.53;;
51907;SDS011;39320;53.214;6.556;2022-08-25T16:01:41;5.93;;;3.70;;
51907;SDS011;39320;53.214;6.556;2022-08-25T16:04:10;5.00;;;3.40;;
51907;SDS011;39320;53.214;6.556;2022-08-25T16:06:36;5.63;;;3.63;;
51907;SDS011;39320;53.214;6.556;2022-08-25T16:09:02;5.28;;;3.60;;
51907;SDS011;39320;53.214;6.556;2022-08-25T16:11:29;5.30;;;3.70;;
51907;SDS011;39320;53.214;6.556;2022-08-25T16:13:57;6.28;;;3.78;;
51907;SDS011;39320;53.214;6.556;2022-08-25T16:16:24;5.53;;;3.70;;
51907;SDS011;39320;53.214;6.556;2022-08-25T16:18:52;4.40;;;3.15;;
51907;SDS011;39320;53.214;6.556;2022-08-25T16:21:19;5.95;;;3.90;;
51907;SDS011;39320;53.214;6.556;2022-08-25T16:23:49;4.30;;;3.13;;
51907;SDS011;39320;53.214;6.556;2022-08-25T16:26:19;6.05;;;3.83;;
51907;SDS011;39320;53.214;6.556;2022-08-25T16:28:45;5.03;;;3.28;;
51907;SDS011;39320;53.214;6.556;2022-08-25T16:31:12;3.58;;;2.88;;
51907;SDS011;39320;53.214;6.556;2022-08-25T16:33:39;4.45;;;3.55;;
51907;SDS011;39320;53.214;6.556;2022-08-25T16:38:32;6.20;;;4.05;;
51907;SDS011;39320;53.214;6.556;2022-08-25T16:40:58;4.90;;;3.55;;
51907;SDS011;39320;53.214;6.556;2022-08-25T16:43:25;6.00;;;3.30;;
51907;SDS011;39320;53.214;6.556;2022-08-25T16:46:02;4.30;;;3.33;;
51907;SDS011;39320;53.214;6.556;2022-08-25T16:48:31;4.18;;;3.40;;
51907;SDS011;39320;53.214;6.556;2022-08-25T16:50:57;6.28;;;3.03;;
51907;SDS011;39320;53.214;6.556;2022-08-25T16:53:23;6.50;;;3.97;;
51907;SDS011;39320;53.214;6.556;2022-08-25T16:56:28;5.90;;;3.28;;
51907;SDS011;39320;53.214;6.556;2022-08-25T16:58:57;5.10;;;3.30;;
51907;SDS011;39320;53.214;6.556;2022-08-25T17:01:25;5.05;;;3.40;;
51907;SDS011;39320;53.214;6.556;2022-08-25T17:03:52;5.20;;;3.50;;
51907;SDS011;39320;53.214;6.556;2022-08-25T17:06:20;8.93;;;3.45;;